createdAt,value
2017-10-27T00:00:42.450Z,101821.52
2017-10-27T00:03:15.526Z,101820.03
2017-10-27T00:05:50.974Z,101815.84
2017-10-27T00:08:33.957Z,101812.38
2017-10-27T00:11:27.231Z,101823.05
2017-10-27T00:14:02.940Z,101816.67
2017-10-27T00:16:36.225Z,101821.62
2017-10-27T00:19:09.941Z,101823.19
2017-10-27T00:21:43.497Z,101834.34
2017-10-27T00:24:16.585Z,101831.78
2017-10-27T00:26:55.377Z,101836.53
2017-10-27T00:29:43.058Z,101840.16
2017-10-27T00:32:23.176Z,101830.23
2017-10-27T00:35:07.003Z,101832.65
2017-10-27T00:37:40.196Z,101828.80
2017-10-27T00:40:13.551Z,101851.63
2017-10-27T00:42:46.704Z,101837.41
2017-10-27T00:45:21.090Z,101842.88
2017-10-27T00:50:33.128Z,101837.65
2017-10-27T00:53:05.973Z,101842.25
2017-10-27T00:55:39.045Z,101843.87
2017-10-27T00:58:13.840Z,101841.38
2017-10-27T01:00:48.336Z,101829.60
2017-10-27T01:06:00.453Z,101840.13
2017-10-27T01:08:33.072Z,101836.81
2017-10-27T01:11:05.536Z,101824.72
2017-10-27T01:13:38.018Z,101826.99
2017-10-27T01:16:11.019Z,101817.52
2017-10-27T01:18:43.713Z,101828.96
2017-10-27T01:21:16.630Z,101830.02
2017-10-27T01:23:50.839Z,101828.32
2017-10-27T01:26:24.124Z,101837.81
2017-10-27T01:28:58.311Z,101832.16
2017-10-27T01:31:31.009Z,101828.12
2017-10-27T01:34:04.126Z,101826.48
2017-10-27T01:36:36.812Z,101822.88
2017-10-27T01:39:10.225Z,101817.33
2017-10-27T01:41:42.635Z,101807.63
2017-10-27T01:44:15.636Z,101812.28
2017-10-27T01:46:49.008Z,101816.10
2017-10-27T01:49:21.658Z,101810.23
2017-10-27T01:51:55.558Z,101803.30
2017-10-27T01:54:28.123Z,101801.95
2017-10-27T01:57:00.344Z,101803.09
2017-10-27T02:02:39.119Z,101805.62
2017-10-27T02:05:12.551Z,101798.59
2017-10-27T02:07:45.344Z,101792.78
2017-10-27T02:10:17.422Z,101784.95
2017-10-27T02:12:49.513Z,101797.66
2017-10-27T02:15:23.434Z,101801.03
2017-10-27T02:17:56.847Z,101801.05
2017-10-27T02:20:28.715Z,101803.42
2017-10-27T02:23:02.029Z,101801.00
2017-10-27T02:25:34.021Z,101793.80
2017-10-27T02:28:05.712Z,101806.36
2017-10-27T02:30:38.822Z,101804.64
2017-10-27T02:33:12.247Z,101804.03
2017-10-27T02:35:45.280Z,101807.14
2017-10-27T02:38:18.060Z,101806.28
2017-10-27T02:40:50.559Z,101809.41
2017-10-27T02:43:23.196Z,101798.59
2017-10-27T02:45:56.850Z,101800.00
2017-10-27T02:48:28.850Z,101797.38
2017-10-27T02:51:01.151Z,101797.76
2017-10-27T02:53:32.958Z,101800.93
2017-10-27T02:56:05.456Z,101799.23
2017-10-27T02:58:44.570Z,101800.39
2017-10-27T03:01:17.357Z,101795.88
2017-10-27T03:03:49.974Z,101793.86
2017-10-27T03:06:25.913Z,101806.68
2017-10-27T03:08:58.458Z,101812.27
2017-10-27T03:11:30.894Z,101811.72
2017-10-27T03:14:03.716Z,101806.19
2017-10-27T03:17:11.843Z,101820.03
2017-10-27T03:19:45.073Z,101819.23
2017-10-27T03:22:17.296Z,101820.86
2017-10-27T03:24:49.832Z,101821.52
2017-10-27T03:27:34.182Z,101822.09
2017-10-27T03:30:17.404Z,101815.15
2017-10-27T03:32:50.571Z,101815.52
2017-10-27T03:35:24.085Z,101829.95
2017-10-27T03:37:58.779Z,101826.52
2017-10-27T03:40:33.347Z,101838.75
2017-10-27T03:43:06.768Z,101829.89
2017-10-27T03:45:40.626Z,101830.72
2017-10-27T03:48:13.309Z,101830.02
2017-10-27T03:53:40.158Z,101822.69
2017-10-27T03:56:12.459Z,101819.87
2017-10-27T03:58:45.779Z,101821.73
2017-10-27T04:01:21.345Z,101829.70
2017-10-27T04:04:12.657Z,101833.86
2017-10-27T04:06:46.351Z,101827.09
2017-10-27T04:09:19.158Z,101833.42
2017-10-27T04:11:51.187Z,101833.98
2017-10-27T04:14:35.834Z,101843.52
2017-10-27T04:17:08.844Z,101849.31
2017-10-27T04:19:41.030Z,101848.78
2017-10-27T04:22:13.548Z,101851.46
2017-10-27T04:24:46.225Z,101860.30
2017-10-27T04:27:18.617Z,101862.84
2017-10-27T04:29:51.858Z,101855.69
2017-10-27T04:32:24.818Z,101866.19
2017-10-27T04:35:03.491Z,101855.09
2017-10-27T04:37:36.311Z,101852.84
2017-10-27T04:40:09.403Z,101856.38
2017-10-27T04:42:49.577Z,101866.22
2017-10-27T04:45:27.299Z,101873.18
2017-10-27T04:47:59.549Z,101867.09
2017-10-27T04:50:31.798Z,101874.23
2017-10-27T04:53:04.994Z,101873.73
2017-10-27T04:55:37.043Z,101878.09
2017-10-27T04:58:08.795Z,101876.54
2017-10-27T05:00:44.290Z,101870.33
2017-10-27T05:03:19.415Z,101886.25
2017-10-27T05:06:13.735Z,101879.05
2017-10-27T05:08:59.199Z,101886.77
2017-10-27T05:11:31.798Z,101897.98
2017-10-27T05:14:08.417Z,101901.94
2017-10-27T05:16:47.274Z,101899.71
2017-10-27T05:19:25.979Z,101897.86
2017-10-27T05:25:14.985Z,101905.71
2017-10-27T05:30:44.865Z,101905.92
2017-10-27T05:33:30.589Z,101913.39
2017-10-27T05:36:03.756Z,101897.11
2017-10-27T05:38:36.383Z,101910.92
2017-10-27T05:41:22.478Z,101913.45
2017-10-27T05:44:13.622Z,101910.49
2017-10-27T05:49:45.259Z,101929.63
2017-10-27T05:52:19.259Z,101929.63
2017-10-27T05:54:52.834Z,101932.65
2017-10-27T05:57:25.734Z,101938.42
2017-10-27T06:00:21.985Z,101941.81
2017-10-27T06:03:04.280Z,101951.59
2017-10-27T06:05:38.584Z,101951.56
2017-10-27T06:08:11.034Z,101961.80
2017-10-27T06:11:11.203Z,101962.46
2017-10-27T06:13:49.430Z,101970.29
2017-10-27T06:16:25.721Z,101971.69
2017-10-27T06:19:05.582Z,101977.56
2017-10-27T06:21:38.417Z,101979.89
2017-10-27T06:24:11.876Z,101982.11
2017-10-27T06:26:44.647Z,101975.95
2017-10-27T06:29:26.118Z,101990.23
2017-10-27T06:31:59.767Z,101986.23
2017-10-27T06:34:33.943Z,102000.70
2017-10-27T06:37:08.392Z,101998.20
2017-10-27T06:39:42.930Z,102002.60
2017-10-27T06:42:23.758Z,102008.09
2017-10-27T06:44:57.688Z,102004.95
2017-10-27T06:47:33.772Z,101998.19
2017-10-27T06:50:06.234Z,102017.83
2017-10-27T06:52:39.519Z,102020.79
2017-10-27T06:55:12.043Z,102029.35
2017-10-27T06:57:44.426Z,102032.21
2017-10-27T07:00:21.836Z,102035.62
2017-10-27T07:03:02.509Z,102040.43
2017-10-27T07:05:36.226Z,102053.80
2017-10-27T07:08:25.535Z,102045.70
2017-10-27T07:11:03.168Z,102053.21
2017-10-27T07:13:35.501Z,102056.94
2017-10-27T07:16:09.687Z,102066.33
2017-10-27T07:18:42.207Z,102061.19
2017-10-27T07:21:36.594Z,102055.03
2017-10-27T07:27:52.375Z,102084.34
2017-10-27T07:30:48.494Z,102093.11
2017-10-27T07:33:22.639Z,102097.05
2017-10-27T07:36:01.583Z,102094.44
2017-10-27T07:38:36.488Z,102093.91
2017-10-27T07:41:10.488Z,102104.77
2017-10-27T07:43:46.251Z,102107.89
2017-10-27T07:46:28.126Z,102106.80
2017-10-27T07:49:09.100Z,102109.77
2017-10-27T07:51:42.137Z,102118.63
2017-10-27T07:54:17.632Z,102125.50
2017-10-27T07:56:52.679Z,102128.77
2017-10-27T07:59:26.491Z,102136.77
2017-10-27T08:02:00.429Z,102143.55
2017-10-27T08:04:33.095Z,102147.91
2017-10-27T08:07:06.297Z,102148.84
2017-10-27T08:09:39.331Z,102153.32
2017-10-27T08:12:13.715Z,102160.52
2017-10-27T08:14:51.069Z,102170.78
2017-10-27T08:17:26.579Z,102157.19
2017-10-27T08:19:59.975Z,102166.81
2017-10-27T08:22:38.564Z,102174.02
2017-10-27T08:25:11.572Z,102177.76
2017-10-27T08:27:44.169Z,102188.12
2017-10-27T08:30:20.764Z,102176.23
2017-10-27T08:32:59.962Z,102167.73
2017-10-27T08:35:36.052Z,102175.06
2017-10-27T08:38:09.153Z,102184.52
2017-10-27T08:40:42.656Z,102190.72
2017-10-27T08:43:18.303Z,102205.56
2017-10-27T08:45:52.319Z,102199.77
2017-10-27T08:48:28.330Z,102200.78
2017-10-27T08:51:01.977Z,102203.17
2017-10-27T08:53:34.344Z,102208.33
2017-10-27T08:56:08.050Z,102218.91
2017-10-27T08:58:41.545Z,102215.23
2017-10-27T09:01:14.680Z,102213.09
2017-10-27T09:03:48.352Z,102220.55
2017-10-27T09:06:21.606Z,102229.71
2017-10-27T09:08:57.644Z,102226.71
2017-10-27T09:11:33.749Z,102226.92
2017-10-27T09:17:08.139Z,102225.98
2017-10-27T09:19:40.382Z,102245.75
2017-10-27T09:22:12.648Z,102227.42
2017-10-27T09:24:46.020Z,102246.35
2017-10-27T09:27:22.695Z,102243.46
2017-10-27T09:32:40.935Z,102261.13
2017-10-27T09:35:15.196Z,102272.82
2017-10-27T09:37:51.988Z,102277.30
2017-10-27T09:40:28.845Z,102278.34
2017-10-27T09:43:05.235Z,102292.82
2017-10-27T09:45:43.455Z,102284.35
2017-10-27T09:48:24.824Z,102300.70
2017-10-27T09:51:16.698Z,102299.77
2017-10-27T09:53:59.632Z,102310.23
2017-10-27T09:56:33.935Z,102317.83
2017-10-27T09:59:06.724Z,102325.28
2017-10-27T10:01:42.887Z,102315.88
2017-10-27T10:04:31.128Z,102335.59
2017-10-27T10:07:10.700Z,102332.77
2017-10-27T10:09:47.954Z,102337.59
2017-10-27T10:12:24.373Z,102329.59
2017-10-27T10:15:00.259Z,102323.12
2017-10-27T10:17:38.243Z,102322.83
2017-10-27T10:20:18.585Z,102333.37
2017-10-27T10:22:59.145Z,102332.34
2017-10-27T10:25:35.740Z,102324.20
2017-10-27T10:28:10.398Z,102332.97
2017-10-27T10:30:47.552Z,102334.73
2017-10-27T10:33:43.300Z,102343.09
2017-10-27T10:36:20.016Z,102347.88
2017-10-27T10:38:58.584Z,102347.45
2017-10-27T10:41:34.828Z,102354.18
2017-10-27T10:44:10.883Z,102352.59
2017-10-27T10:46:48.626Z,102353.75
2017-10-27T10:49:40.237Z,102317.60
2017-10-27T10:52:16.755Z,102356.46
2017-10-27T10:55:24.034Z,102354.59
2017-10-27T10:58:00.866Z,102356.09
2017-10-27T11:00:42.813Z,102366.73
2017-10-27T11:03:19.442Z,102361.97
2017-10-27T11:05:56.817Z,102359.21
2017-10-27T11:08:34.258Z,102371.97
2017-10-27T11:11:13.080Z,102360.06
2017-10-27T11:13:54.180Z,102359.92
2017-10-27T11:16:31.776Z,102359.91
2017-10-27T11:19:11.063Z,102355.77
2017-10-27T11:21:49.264Z,102359.13
2017-10-27T11:24:27.631Z,102360.32
2017-10-27T11:27:11.656Z,102352.96
2017-10-27T11:29:52.399Z,102350.86
2017-10-27T11:32:41.015Z,102355.53
2017-10-27T11:35:15.450Z,102361.30
2017-10-27T11:37:52.142Z,102356.05
2017-10-27T11:40:30.431Z,102349.38
2017-10-27T11:43:10.947Z,102350.55
2017-10-27T11:45:50.955Z,102346.54
2017-10-27T11:48:49.727Z,102356.14
2017-10-27T11:51:39.374Z,102372.33
2017-10-27T11:54:25.811Z,102367.70
2017-10-27T11:57:20.304Z,102360.41
2017-10-27T12:03:02.153Z,102364.99
2017-10-27T12:05:40.115Z,102367.88
2017-10-27T12:11:12.053Z,102380.20
2017-10-27T12:13:56.525Z,102376.61
2017-10-27T12:16:36.536Z,102374.52
2017-10-27T12:19:18.016Z,102365.72
2017-10-27T12:21:59.211Z,102358.91
2017-10-27T12:24:39.725Z,102367.22
2017-10-27T12:27:23.025Z,102366.66
2017-10-27T12:32:51.562Z,102369.41
2017-10-27T12:35:33.440Z,102371.52
2017-10-27T12:38:19.219Z,102375.83
2017-10-27T12:41:14.530Z,102370.15
2017-10-27T12:44:00.032Z,102384.25
2017-10-27T12:46:43.489Z,102372.32
2017-10-27T12:49:28.057Z,102390.80
2017-10-27T12:52:05.934Z,102385.78
2017-10-27T12:54:45.321Z,102392.40
2017-10-27T12:57:24.987Z,102392.87
2017-10-27T13:03:02.193Z,102383.04
2017-10-27T13:05:40.569Z,102379.97
2017-10-27T13:08:41.762Z,102386.03
2017-10-27T13:11:27.897Z,102394.83
2017-10-27T13:14:19.226Z,102392.41
2017-10-27T13:17:01.260Z,102376.22
2017-10-27T13:19:44.631Z,102376.09
2017-10-27T13:22:36.377Z,102387.78
2017-10-27T13:25:19.444Z,102380.62
2017-10-27T13:28:13.528Z,102372.10
2017-10-27T13:31:00.625Z,102373.02
2017-10-27T13:33:46.663Z,102380.42
2017-10-27T13:38:02.936Z,102389.20
2017-10-27T13:40:44.142Z,102382.55
2017-10-27T13:43:21.347Z,102399.14
2017-10-27T13:46:05.744Z,102401.54
2017-10-27T13:48:47.043Z,102407.42
2017-10-27T13:51:26.913Z,102407.48
2017-10-27T13:54:07.522Z,102416.02
2017-10-27T13:56:46.908Z,102398.36
2017-10-27T13:59:28.113Z,102424.88
2017-10-27T14:02:13.922Z,102427.77
2017-10-27T14:04:52.024Z,102426.06
2017-10-27T14:07:36.293Z,102429.64
2017-10-27T14:10:24.543Z,102424.52
2017-10-27T14:13:04.907Z,102427.63
2017-10-27T14:15:50.897Z,102426.45
2017-10-27T14:18:35.304Z,102431.61
2017-10-27T14:21:15.994Z,102430.52
2017-10-27T14:23:58.303Z,102432.96
2017-10-27T14:26:49.976Z,102448.74
2017-10-27T14:29:29.171Z,102455.05
2017-10-27T14:32:06.421Z,102450.28
2017-10-27T14:34:49.532Z,102457.97
2017-10-27T14:37:33.899Z,102460.91
2017-10-27T14:41:05.555Z,102462.17
2017-10-27T14:43:48.523Z,102461.88
2017-10-27T14:46:32.385Z,102455.53
2017-10-27T14:49:09.764Z,102452.56
2017-10-27T14:51:48.854Z,102460.69
2017-10-27T14:54:44.768Z,102475.98
2017-10-27T14:57:36.371Z,102472.14
2017-10-27T15:00:27.251Z,102481.11
2017-10-27T15:03:09.971Z,102488.36
2017-10-27T15:06:08.969Z,102484.09
2017-10-27T15:08:48.986Z,102493.57
2017-10-27T15:11:28.371Z,102496.89
2017-10-27T15:14:13.768Z,102500.39
2017-10-27T15:16:53.669Z,102490.11
2017-10-27T15:19:40.188Z,102518.13
2017-10-27T15:22:26.471Z,102510.20
2017-10-27T15:25:18.095Z,102522.25
2017-10-27T15:28:18.572Z,102522.61
2017-10-27T15:31:04.374Z,102521.75
2017-10-27T15:33:45.785Z,102517.84
2017-10-27T15:37:12.632Z,102515.19
2017-10-27T15:39:59.863Z,102514.59
2017-10-27T15:42:53.773Z,102497.42
2017-10-27T15:45:35.961Z,102509.02
2017-10-27T15:48:22.164Z,102503.33
2017-10-27T15:51:07.541Z,102514.55
2017-10-27T15:53:50.330Z,102514.17
2017-10-27T15:56:41.144Z,102513.34
2017-10-27T15:59:47.045Z,102512.03
2017-10-27T16:02:47.288Z,102509.42
2017-10-27T16:05:38.123Z,102511.46
2017-10-27T16:08:38.930Z,102522.16
2017-10-27T16:11:23.234Z,102516.77
2017-10-27T16:14:06.641Z,102523.35
2017-10-27T16:16:50.081Z,102519.55
2017-10-27T16:19:38.834Z,102506.06
2017-10-27T16:22:20.662Z,102510.96
2017-10-27T16:25:14.429Z,102514.41
2017-10-27T16:27:56.154Z,102513.78
2017-10-27T16:30:35.845Z,102498.97
2017-10-27T16:33:16.915Z,102516.23
2017-10-27T16:36:11.359Z,102520.48
2017-10-27T16:38:57.719Z,102514.68
2017-10-27T16:41:34.248Z,102507.87
2017-10-27T16:44:15.769Z,102518.50
2017-10-27T16:47:02.089Z,102518.67
2017-10-27T16:49:54.670Z,102517.16
2017-10-27T16:52:39.488Z,102522.21
2017-10-27T16:55:40.913Z,102521.35
2017-10-27T17:01:46.762Z,102514.05
2017-10-27T17:06:14.526Z,102525.31
2017-10-27T17:12:01.389Z,102526.13
2017-10-27T17:17:45.054Z,102537.55
2017-10-27T17:20:25.357Z,102539.11
2017-10-27T17:23:09.387Z,102545.16
2017-10-27T17:25:59.102Z,102548.86
2017-10-27T17:28:39.486Z,102553.52
2017-10-27T17:31:27.260Z,102558.86
2017-10-27T17:34:19.924Z,102564.96
2017-10-27T17:40:10.254Z,102587.88
2017-10-27T17:42:52.433Z,102591.02
2017-10-27T17:48:20.112Z,102594.20
2017-10-27T17:51:14.023Z,102587.33
2017-10-27T17:54:09.267Z,102572.08
2017-10-27T17:59:47.116Z,102571.83
2017-10-27T18:02:34.110Z,102577.76
2017-10-27T18:05:16.236Z,102587.45
2017-10-27T18:08:13.806Z,102596.02
2017-10-27T18:11:05.383Z,102595.77
2017-10-27T18:13:45.863Z,102591.15
2017-10-27T18:16:24.753Z,102600.84
2017-10-27T18:19:21.712Z,102595.92
2017-10-27T18:22:01.017Z,102604.36
2017-10-27T18:24:41.933Z,102601.23
2017-10-27T18:27:39.876Z,102608.05
2017-10-27T18:30:24.850Z,102606.36
2017-10-27T18:33:14.255Z,102605.53
2017-10-27T18:35:58.153Z,102611.77
2017-10-27T18:41:45.526Z,102620.70
2017-10-27T18:44:29.721Z,102615.77
2017-10-27T18:47:13.499Z,102609.20
2017-10-27T18:49:57.414Z,102615.39
2017-10-27T18:52:36.268Z,102604.94
2017-10-27T18:58:24.130Z,102609.06
2017-10-27T19:01:24.501Z,102617.81
2017-10-27T19:04:13.754Z,102621.29
2017-10-27T19:07:01.866Z,102608.05
2017-10-27T19:09:46.366Z,102606.03
2017-10-27T19:16:28.356Z,102621.05
2017-10-27T19:19:11.361Z,102628.77
2017-10-27T19:21:52.309Z,102624.32
2017-10-27T19:24:38.945Z,102614.78
2017-10-27T19:27:27.085Z,102619.92
2017-10-27T19:30:16.351Z,102622.17
2017-10-27T19:32:58.689Z,102632.25
2017-10-27T19:35:50.270Z,102631.34
2017-10-27T19:38:35.371Z,102625.28
2017-10-27T19:41:16.370Z,102622.06
2017-10-27T19:43:52.253Z,102621.00
2017-10-27T19:46:31.871Z,102619.36
2017-10-27T19:49:21.639Z,102618.12
2017-10-27T19:52:05.249Z,102606.76
2017-10-27T19:54:50.170Z,102614.48
2017-10-27T19:57:30.531Z,102602.74
2017-10-27T20:00:21.344Z,102611.44
2017-10-27T20:03:03.853Z,102614.10
2017-10-27T20:05:42.517Z,102617.67
2017-10-27T20:08:27.373Z,102621.02
2017-10-27T20:11:11.181Z,102613.34
2017-10-27T20:14:12.122Z,102604.04
2017-10-27T20:16:54.143Z,102607.06
2017-10-27T20:19:41.077Z,102615.48
2017-10-27T20:25:25.182Z,102619.30
2017-10-27T20:28:04.000Z,102616.27
2017-10-27T20:30:45.985Z,102600.53
2017-10-27T20:33:26.796Z,102603.92
2017-10-27T20:36:06.495Z,102598.34
2017-10-27T20:39:18.752Z,102610.81
2017-10-27T20:42:05.543Z,102598.08
2017-10-27T20:44:41.684Z,102614.60
2017-10-27T20:47:41.155Z,102608.69
2017-10-27T20:50:49.559Z,102605.02
2017-10-27T20:53:29.216Z,102596.41
2017-10-27T20:56:11.040Z,102586.05
2017-10-27T20:58:47.174Z,102599.34
2017-10-27T21:01:25.460Z,102602.23
2017-10-27T21:04:25.464Z,102596.86
2017-10-27T21:07:06.039Z,102595.48
2017-10-27T21:09:44.648Z,102596.96
2017-10-27T21:12:40.821Z,102600.59
2017-10-27T21:18:14.262Z,102589.06
2017-10-27T21:23:56.663Z,102596.58
2017-10-27T21:26:36.811Z,102597.80
2017-10-27T21:29:16.263Z,102592.55
2017-10-27T21:36:14.160Z,102578.26
2017-10-27T21:38:55.917Z,102583.30
2017-10-27T21:41:37.884Z,102585.47
2017-10-27T21:44:20.091Z,102588.58
2017-10-27T21:47:01.956Z,102582.05
2017-10-27T21:49:43.317Z,102588.75
2017-10-27T21:52:24.907Z,102587.86
2017-10-27T21:55:07.820Z,102574.23
2017-10-27T21:57:46.811Z,102574.11
2017-10-27T22:00:28.712Z,102582.53
2017-10-27T22:03:11.253Z,102579.80
2017-10-27T22:05:50.389Z,102573.44
2017-10-27T22:08:25.325Z,102576.55
2017-10-27T22:10:58.925Z,102573.73
2017-10-27T22:13:32.833Z,102562.11
2017-10-27T22:16:13.972Z,102560.96
2017-10-27T22:18:47.614Z,102567.22
2017-10-27T22:21:24.441Z,102556.23
2017-10-27T22:23:57.283Z,102552.50
2017-10-27T22:26:30.781Z,102559.29
2017-10-27T22:29:03.907Z,102555.29
2017-10-27T22:31:36.770Z,102545.83
2017-10-27T22:34:11.359Z,102545.43
2017-10-27T22:36:48.936Z,102547.39
2017-10-27T22:39:29.995Z,102535.94
2017-10-27T22:42:12.858Z,102535.64
2017-10-27T22:45:04.670Z,102524.98
2017-10-27T22:52:04.534Z,102517.39
2017-10-27T22:54:40.794Z,102517.06
2017-10-27T22:57:14.810Z,102509.38
2017-10-27T22:59:52.765Z,102507.88
2017-10-27T23:02:28.702Z,102509.75
2017-10-27T23:05:04.683Z,102512.62
2017-10-27T23:07:41.673Z,102517.87
2017-10-27T23:10:19.004Z,102517.05
2017-10-27T23:15:56.057Z,102510.67
2017-10-27T23:18:30.400Z,102500.61
2017-10-27T23:21:06.860Z,102498.70
2017-10-27T23:23:39.539Z,102494.16
2017-10-27T23:26:15.836Z,102484.73
2017-10-27T23:31:42.442Z,102479.66
2017-10-27T23:34:14.391Z,102472.25
2017-10-27T23:36:47.885Z,102472.64
2017-10-27T23:39:22.240Z,102484.78
2017-10-27T23:41:56.252Z,102485.25
2017-10-27T23:44:35.907Z,102481.09
2017-10-27T23:50:13.401Z,102475.13
2017-10-27T23:52:58.800Z,102475.08
2017-10-27T23:55:50.511Z,102463.19
